createdAt,value
2022-08-05T00:01:27.630Z,8.63
2022-08-05T00:03:54.944Z,10.57
2022-08-05T00:06:32.384Z,6.88
2022-08-05T00:09:00.953Z,8.73
2022-08-05T00:11:34.530Z,8.35
2022-08-05T00:14:12.746Z,10.68
2022-08-05T00:16:52.336Z,11.98
2022-08-05T00:19:22.295Z,5.85
2022-08-05T00:21:49.639Z,9.10
2022-08-05T00:24:24.151Z,8.10
2022-08-05T00:26:53.179Z,9.57
2022-08-05T00:29:25.295Z,7.75
2022-08-05T00:32:13.109Z,10.20
2022-08-05T00:35:05.676Z,6.43
2022-08-05T00:37:35.821Z,7.90
2022-08-05T00:40:26.780Z,7.28
2022-08-05T00:42:55.609Z,8.10
2022-08-05T00:45:28.293Z,9.77
2022-08-05T00:48:13.479Z,10.13
2022-08-05T00:50:45.782Z,6.95
2022-08-05T00:54:01.456Z,5.65
2022-08-05T00:56:01.077Z,5.97
2022-08-05T00:58:27.856Z,8.52
2022-08-05T01:00:54.701Z,8.68
2022-08-05T01:03:22.517Z,6.60
2022-08-05T01:05:54.452Z,7.75
2022-08-05T01:08:39.839Z,7.78
2022-08-05T01:11:22.718Z,9.93
2022-08-05T01:14:08.766Z,6.40
2022-08-05T01:17:13.888Z,8.20
2022-08-05T01:20:03.869Z,6.80
2022-08-05T01:23:14.333Z,8.07
2022-08-05T01:26:13.357Z,8.73
2022-08-05T01:29:04.305Z,7.00
2022-08-05T01:31:48.823Z,6.75
2022-08-05T01:34:21.503Z,6.88
2022-08-05T01:37:18.169Z,7.95
2022-08-05T01:39:54.939Z,7.47
2022-08-05T01:42:27.800Z,7.72
2022-08-05T01:44:56.891Z,6.60
2022-08-05T01:47:32.545Z,6.95
2022-08-05T01:50:20.260Z,6.72
2022-08-05T01:52:59.769Z,7.97
2022-08-05T01:55:29.446Z,4.25
2022-08-05T01:58:11.777Z,4.70
2022-08-05T02:00:45.673Z,6.55
2022-08-05T02:03:34.172Z,5.95
2022-08-05T02:06:03.645Z,7.03
2022-08-05T02:08:58.205Z,7.22
2022-08-05T02:11:33.877Z,5.10
2022-08-05T02:14:17.473Z,8.45
2022-08-05T02:16:52.161Z,6.10
2022-08-05T02:19:36.234Z,9.00
2022-08-05T02:22:28.066Z,6.40
2022-08-05T02:25:12.568Z,7.43
2022-08-05T02:27:59.724Z,8.85
2022-08-05T02:30:32.341Z,4.57
2022-08-05T02:33:03.406Z,7.45
2022-08-05T02:35:38.126Z,6.70
2022-08-05T02:38:19.301Z,9.23
2022-08-05T02:40:47.467Z,6.60
2022-08-05T02:43:16.863Z,8.38
2022-08-05T02:45:52.824Z,10.02
2022-08-05T02:48:29.004Z,7.25
2022-08-05T02:50:59.904Z,7.45
2022-08-05T02:53:28.681Z,7.75
2022-08-05T02:56:08.104Z,5.47
2022-08-05T02:58:43.606Z,9.18
2022-08-05T03:01:16.832Z,7.07
2022-08-05T03:04:02.935Z,8.30
2022-08-05T03:06:53.820Z,7.47
2022-08-05T03:09:27.170Z,11.10
2022-08-05T03:12:04.476Z,9.73
2022-08-05T03:14:31.240Z,8.63
2022-08-05T03:16:57.927Z,6.55
2022-08-05T03:19:33.931Z,7.97
2022-08-05T03:22:01.342Z,6.30
2022-08-05T03:24:30.676Z,5.90
2022-08-05T03:26:59.400Z,8.73
2022-08-05T03:29:45.378Z,8.70
2022-08-05T03:32:15.185Z,4.95
2022-08-05T03:34:50.589Z,6.03
2022-08-05T03:37:20.543Z,6.43
2022-08-05T03:39:58.739Z,8.95
2022-08-05T03:42:28.863Z,9.02
2022-08-05T03:44:55.917Z,7.20
2022-08-05T03:47:24.149Z,11.77
2022-08-05T03:49:52.406Z,9.85
2022-08-05T03:52:49.193Z,6.97
2022-08-05T03:56:06.145Z,8.02
2022-08-05T03:58:12.386Z,5.60
2022-08-05T04:00:42.063Z,5.60
2022-08-05T04:03:26.565Z,7.60
2022-08-05T04:05:56.651Z,10.02
2022-08-05T04:08:34.617Z,7.35
2022-08-05T04:11:07.345Z,5.07
2022-08-05T04:13:50.421Z,8.23
2022-08-05T04:16:24.267Z,9.68
2022-08-05T04:18:54.465Z,8.20
2022-08-05T04:22:08.789Z,8.45
2022-08-05T04:24:18.639Z,7.35
2022-08-05T04:26:46.629Z,8.35
2022-08-05T04:29:13.374Z,7.57
2022-08-05T04:31:41.140Z,8.90
2022-08-05T04:34:18.905Z,9.13
2022-08-05T04:36:56.438Z,12.05
2022-08-05T04:39:23.280Z,5.32
2022-08-05T04:41:51.598Z,10.07
2022-08-05T04:44:21.559Z,8.35
2022-08-05T04:46:57.680Z,9.35
2022-08-05T04:49:38.823Z,7.50
2022-08-05T04:52:13.021Z,9.55
2022-08-05T04:54:39.726Z,7.65
2022-08-05T04:57:06.422Z,9.18
2022-08-05T04:59:39.242Z,11.02
2022-08-05T05:02:41.437Z,7.50
2022-08-05T05:05:01.811Z,8.70
2022-08-05T05:07:32.873Z,8.80
2022-08-05T05:10:05.381Z,8.00
2022-08-05T05:12:33.371Z,9.80
2022-08-05T05:15:03.675Z,6.22
2022-08-05T05:17:57.159Z,7.43
2022-08-05T05:20:28.374Z,6.15
2022-08-05T05:22:56.143Z,7.22
2022-08-05T05:25:32.708Z,7.63
2022-08-05T05:27:59.859Z,6.80
2022-08-05T05:30:30.825Z,7.82
2022-08-05T05:33:03.776Z,8.00
2022-08-05T05:35:42.764Z,9.15
2022-08-05T05:38:13.292Z,5.97
2022-08-05T05:40:48.030Z,8.63
2022-08-05T05:43:27.863Z,7.88
2022-08-05T05:46:03.817Z,5.28
2022-08-05T05:48:32.277Z,9.63
2022-08-05T05:51:14.797Z,4.47
2022-08-05T05:53:54.063Z,6.57
2022-08-05T05:56:32.432Z,5.22
2022-08-05T05:59:03.589Z,6.72
2022-08-05T06:01:36.993Z,5.15
2022-08-05T06:04:11.702Z,7.47
2022-08-05T06:06:47.477Z,6.78
2022-08-05T06:09:27.475Z,6.47
2022-08-05T06:12:03.887Z,6.20
2022-08-05T06:14:31.802Z,7.15
2022-08-05T06:17:02.182Z,6.80
2022-08-05T06:19:56.947Z,4.07
2022-08-05T06:22:34.040Z,5.63
2022-08-05T06:25:25.193Z,3.95
2022-08-05T06:28:12.550Z,5.25
2022-08-05T06:30:38.862Z,3.35
2022-08-05T06:33:05.601Z,5.90
2022-08-05T06:36:07.227Z,4.35
2022-08-05T06:38:35.792Z,4.78
2022-08-05T06:41:04.655Z,3.92
2022-08-05T06:43:59.265Z,6.07
2022-08-05T06:46:18.207Z,4.18
2022-08-05T06:48:54.708Z,5.68
2022-08-05T06:51:30.044Z,4.47
2022-08-05T06:54:02.248Z,4.70
2022-08-05T06:56:29.831Z,6.45
2022-08-05T06:58:56.685Z,3.60
2022-08-05T07:01:27.668Z,6.45
2022-08-05T07:03:58.874Z,7.07
2022-08-05T07:06:28.436Z,5.93
2022-08-05T07:08:55.303Z,3.40
2022-08-05T07:11:25.269Z,2.75
2022-08-05T07:14:15.595Z,4.20
2022-08-05T07:18:08.749Z,5.45
2022-08-05T07:22:28.682Z,4.20
2022-08-05T07:25:21.805Z,3.13
2022-08-05T07:27:58.605Z,5.55
2022-08-05T07:30:39.109Z,3.50
2022-08-05T07:33:15.651Z,2.28
2022-08-05T07:36:03.870Z,2.53
2022-08-05T07:38:35.028Z,4.72
2022-08-05T07:41:35.296Z,3.08
2022-08-05T07:43:58.964Z,1.58
2022-08-05T07:46:27.864Z,6.30
2022-08-05T07:49:03.506Z,1.77
2022-08-05T07:51:48.929Z,3.17
2022-08-05T07:54:31.511Z,3.22
2022-08-05T07:57:13.903Z,2.63
2022-08-05T07:59:46.933Z,5.35
2022-08-05T08:02:17.565Z,3.13
2022-08-05T08:04:49.638Z,1.88
2022-08-05T08:07:22.673Z,2.85
2022-08-05T08:09:52.064Z,2.22
2022-08-05T08:12:35.259Z,3.28
2022-08-05T08:15:09.450Z,1.55
2022-08-05T08:17:46.064Z,3.58
2022-08-05T08:20:43.428Z,2.92
2022-08-05T08:23:03.426Z,3.40
2022-08-05T08:25:59.431Z,2.75
2022-08-05T08:28:18.276Z,4.60
2022-08-05T08:30:47.342Z,1.25
2022-08-05T08:33:14.749Z,3.50
2022-08-05T08:35:52.806Z,2.20
2022-08-05T08:38:35.652Z,1.77
2022-08-05T08:41:07.154Z,1.35
2022-08-05T08:45:20.238Z,3.28
2022-08-05T08:46:23.156Z,4.10
2022-08-05T08:49:07.886Z,3.42
2022-08-05T08:52:03.573Z,3.05
2022-08-05T08:54:28.735Z,2.28
2022-08-05T08:56:56.507Z,1.30
2022-08-05T08:59:27.884Z,2.38
2022-08-05T09:02:04.327Z,2.15
2022-08-05T09:04:37.641Z,1.75
2022-08-05T09:07:28.937Z,3.92
2022-08-05T09:09:56.312Z,1.75
2022-08-05T09:12:30.149Z,4.40
2022-08-05T09:15:05.687Z,2.42
2022-08-05T09:17:40.967Z,2.17
2022-08-05T09:20:11.311Z,2.08
2022-08-05T09:23:07.840Z,1.38
2022-08-05T09:28:32.435Z,2.17
2022-08-05T09:31:23.000Z,1.77
2022-08-05T09:34:03.266Z,3.08
2022-08-05T09:36:55.251Z,3.65
2022-08-05T09:39:41.470Z,4.10
2022-08-05T09:42:17.208Z,3.88
2022-08-05T09:44:50.471Z,3.28
2022-08-05T09:47:25.279Z,2.67
2022-08-05T09:50:01.426Z,2.92
2022-08-05T09:52:31.151Z,2.72
2022-08-05T09:55:56.964Z,2.55
2022-08-05T09:57:54.827Z,2.60
2022-08-05T10:00:25.798Z,2.90
2022-08-05T10:02:58.352Z,2.00
2022-08-05T10:05:27.974Z,2.45
2022-08-05T10:08:37.008Z,2.47
2022-08-05T10:10:50.270Z,5.07
2022-08-05T10:13:47.413Z,2.08
2022-08-05T10:16:31.062Z,4.32
2022-08-05T10:19:00.408Z,3.10
2022-08-05T10:21:35.224Z,2.55
2022-08-05T10:24:10.717Z,3.00
2022-08-05T10:26:49.057Z,2.97
2022-08-05T10:29:24.102Z,1.77
2022-08-05T10:32:53.603Z,3.33
2022-08-05T10:34:55.300Z,1.90
2022-08-05T10:37:22.507Z,2.95
2022-08-05T10:40:04.037Z,4.45
2022-08-05T10:42:47.691Z,2.20
2022-08-05T10:45:23.690Z,2.65
2022-08-05T10:48:36.235Z,0.93
2022-08-05T10:51:23.058Z,1.95
2022-08-05T10:53:58.445Z,1.30
2022-08-05T10:56:29.928Z,4.63
2022-08-05T10:59:07.097Z,3.38
2022-08-05T11:01:54.982Z,1.08
2022-08-05T11:04:30.924Z,3.33
2022-08-05T11:07:00.448Z,2.50
2022-08-05T11:09:46.864Z,1.65
2022-08-05T11:12:42.075Z,0.50
2022-08-05T11:16:00.802Z,1.50
2022-08-05T11:18:32.564Z,2.58
2022-08-05T11:21:06.151Z,2.35
2022-08-05T11:24:03.847Z,2.63
2022-08-05T11:26:40.941Z,1.13
2022-08-05T11:29:42.692Z,1.00
2022-08-05T11:32:27.393Z,2.67
2022-08-05T11:34:55.321Z,5.30
2022-08-05T11:38:36.501Z,4.18
2022-08-05T11:41:12.716Z,2.55
2022-08-05T11:44:06.504Z,3.63
2022-08-05T11:47:09.403Z,3.55
2022-08-05T11:52:11.810Z,1.45
2022-08-05T11:54:40.332Z,2.72
2022-08-05T11:57:25.925Z,1.13
2022-08-05T11:59:54.541Z,3.22
2022-08-05T12:02:33.013Z,2.30
2022-08-05T12:05:07.027Z,4.70
2022-08-05T12:08:07.484Z,2.05
2022-08-05T12:10:43.783Z,4.35
2022-08-05T12:13:28.058Z,2.97
2022-08-05T12:16:15.028Z,2.70
2022-08-05T12:18:48.747Z,3.78
2022-08-05T12:21:30.612Z,4.65
2022-08-05T12:24:00.045Z,3.13
2022-08-05T12:26:44.072Z,1.83
2022-08-05T12:29:25.471Z,3.13
2022-08-05T12:31:54.217Z,3.88
2022-08-05T12:34:25.709Z,4.38
2022-08-05T12:36:54.444Z,2.78
2022-08-05T12:39:23.481Z,4.07
2022-08-05T12:42:03.538Z,1.75
2022-08-05T12:44:34.169Z,4.20
2022-08-05T12:47:02.446Z,4.05
2022-08-05T12:50:03.668Z,4.60
2022-08-05T12:52:39.332Z,3.13
2022-08-05T12:55:22.248Z,1.92
2022-08-05T12:58:48.313Z,2.05
2022-08-05T13:02:00.419Z,2.60
2022-08-05T13:03:32.422Z,3.55
2022-08-05T13:06:01.004Z,4.18
2022-08-05T13:08:32.374Z,3.08
2022-08-05T13:11:01.071Z,5.47
2022-08-05T13:14:04.754Z,2.13
2022-08-05T13:16:19.968Z,3.38
2022-08-05T13:18:58.364Z,2.30
2022-08-05T13:21:28.433Z,3.28
2022-08-05T13:24:08.661Z,5.85
2022-08-05T13:26:35.923Z,5.25
2022-08-05T13:29:02.995Z,3.97
2022-08-05T13:32:03.721Z,4.43
2022-08-05T13:34:24.571Z,4.47
2022-08-05T13:36:56.063Z,2.50
2022-08-05T13:39:24.452Z,2.83
2022-08-05T13:42:14.373Z,4.57
2022-08-05T13:44:45.449Z,4.65
2022-08-05T13:47:34.606Z,7.97
2022-08-05T13:50:04.393Z,6.28
2022-08-05T13:52:35.437Z,5.22
2022-08-05T13:55:07.641Z,2.42
2022-08-05T13:57:51.203Z,4.55
2022-08-05T14:00:27.042Z,3.13
2022-08-05T14:02:57.916Z,8.80
2022-08-05T14:05:48.473Z,5.55
2022-08-05T14:08:21.262Z,2.33
2022-08-05T14:11:03.083Z,2.70
2022-08-05T14:13:41.292Z,5.38
2022-08-05T14:16:11.235Z,4.65
2022-08-05T14:18:40.731Z,6.22
2022-08-05T14:22:07.802Z,3.35
2022-08-05T14:23:56.535Z,5.90
2022-08-05T14:26:35.636Z,3.55
2022-08-05T14:29:11.892Z,5.18
2022-08-05T14:32:02.980Z,2.72
2022-08-05T14:34:35.246Z,2.80
2022-08-05T14:37:03.036Z,2.22
2022-08-05T14:39:29.813Z,5.88
2022-08-05T14:42:20.961Z,1.60
2022-08-05T14:44:48.736Z,1.77
2022-08-05T14:47:15.452Z,3.70
2022-08-05T14:49:56.251Z,2.75
2022-08-05T14:52:50.491Z,3.67
2022-08-05T14:55:13.994Z,4.18
2022-08-05T14:57:54.397Z,6.18
2022-08-05T15:00:28.070Z,4.70
2022-08-05T15:02:56.672Z,3.67
2022-08-05T15:05:30.118Z,2.53
2022-08-05T15:08:37.997Z,6.00
2022-08-05T15:11:00.691Z,3.20
2022-08-05T15:13:28.450Z,3.90
2022-08-05T15:15:56.541Z,4.80
2022-08-05T15:18:25.862Z,4.57
2022-08-05T15:20:52.517Z,4.93
2022-08-05T15:23:19.699Z,3.50
2022-08-05T15:25:52.246Z,4.45
2022-08-05T15:28:27.669Z,5.60
2022-08-05T15:30:55.326Z,3.17
2022-08-05T15:34:05.742Z,7.22
2022-08-05T15:36:17.497Z,2.65
2022-08-05T15:41:04.617Z,5.60
2022-08-05T15:41:57.977Z,4.63
2022-08-05T15:44:26.063Z,2.90
2022-08-05T15:46:54.562Z,4.07
2022-08-05T15:49:39.958Z,3.83
2022-08-05T15:52:16.230Z,4.28
2022-08-05T15:54:56.606Z,4.43
2022-08-05T15:57:23.614Z,3.47
2022-08-05T15:59:56.685Z,3.35
2022-08-05T16:02:25.436Z,4.10
2022-08-05T16:04:52.934Z,3.40
2022-08-05T16:07:21.377Z,2.63
2022-08-05T16:09:49.924Z,6.07
2022-08-05T16:12:19.793Z,1.58
2022-08-05T16:14:46.732Z,6.00
2022-08-05T16:17:13.799Z,4.93
2022-08-05T16:20:04.287Z,5.28
2022-08-05T16:22:27.810Z,2.15
2022-08-05T16:25:09.425Z,6.20
2022-08-05T16:27:59.879Z,4.80
2022-08-05T16:30:26.270Z,2.95
2022-08-05T16:32:59.395Z,3.80
2022-08-05T16:35:28.556Z,5.28
2022-08-05T16:38:02.671Z,8.60
2022-08-05T16:40:52.052Z,2.95
2022-08-05T16:43:28.735Z,4.80
2022-08-05T16:46:03.644Z,6.32
2022-08-05T16:48:37.726Z,5.40
2022-08-05T16:51:10.104Z,3.20
2022-08-05T16:54:05.862Z,4.32
2022-08-05T16:56:29.667Z,5.57
2022-08-05T16:58:57.536Z,7.00
2022-08-05T17:01:24.641Z,4.22
2022-08-05T17:03:51.911Z,2.75
2022-08-05T17:06:19.236Z,2.58
2022-08-05T17:08:53.478Z,5.38
2022-08-05T17:11:25.443Z,5.03
2022-08-05T17:14:00.306Z,5.03
2022-08-05T17:16:36.779Z,5.00
2022-08-05T17:19:07.709Z,4.75
2022-08-05T17:21:37.757Z,3.88
2022-08-05T17:24:19.689Z,3.53
2022-08-05T17:26:56.098Z,4.75
2022-08-05T17:29:34.110Z,2.97
2022-08-05T17:32:08.458Z,7.45
2022-08-05T17:34:38.127Z,2.15
2022-08-05T17:37:40.648Z,3.83
2022-08-05T17:40:00.086Z,4.30
2022-08-05T17:42:31.923Z,4.22
2022-08-05T17:45:17.931Z,4.40
2022-08-05T17:47:52.951Z,4.03
2022-08-05T17:50:28.849Z,7.22
2022-08-05T17:53:01.638Z,5.20
2022-08-05T17:55:37.950Z,7.38
2022-08-05T17:58:13.362Z,6.43
2022-08-05T18:00:45.228Z,8.82
2022-08-05T18:03:28.142Z,5.78
2022-08-05T18:06:04.655Z,5.68
2022-08-05T18:08:34.859Z,8.00
2022-08-05T18:11:03.965Z,5.88
2022-08-05T18:13:36.906Z,7.00
2022-08-05T18:16:13.631Z,6.18
2022-08-05T18:18:41.453Z,5.93
2022-08-05T18:21:20.054Z,7.43
2022-08-05T18:23:47.981Z,4.53
2022-08-05T18:26:14.685Z,5.28
2022-08-05T18:28:46.516Z,5.55
2022-08-05T18:31:15.723Z,5.45
2022-08-05T18:33:49.650Z,7.97
2022-08-05T18:36:20.651Z,3.50
2022-08-05T18:38:55.027Z,5.70
2022-08-05T18:41:55.015Z,4.20
2022-08-05T18:44:08.462Z,4.20
2022-08-05T18:46:35.905Z,9.15
2022-08-05T18:49:22.886Z,8.20
2022-08-05T18:52:15.782Z,8.70
2022-08-05T18:54:46.149Z,9.50
2022-08-05T18:57:15.183Z,5.55
2022-08-05T19:00:01.331Z,6.82
2022-08-05T19:02:34.380Z,6.50
2022-08-05T19:06:05.562Z,6.78
2022-08-05T19:07:49.833Z,4.82
2022-08-05T19:10:28.190Z,8.13
2022-08-05T19:12:56.584Z,6.45
2022-08-05T19:15:57.485Z,4.57
2022-08-05T19:18:20.708Z,5.82
2022-08-05T19:20:53.465Z,9.77
2022-08-05T19:24:03.795Z,6.03
2022-08-05T19:26:08.506Z,4.47
2022-08-05T19:28:42.007Z,5.82
2022-08-05T19:31:09.912Z,8.85
2022-08-05T19:33:48.550Z,6.55
2022-08-05T19:36:25.811Z,6.90
2022-08-05T19:38:55.092Z,8.30
2022-08-05T19:42:05.661Z,4.55
2022-08-05T19:44:14.346Z,9.07
2022-08-05T19:46:41.627Z,4.53
2022-08-05T19:49:12.507Z,6.38
2022-08-05T19:52:05.463Z,8.52
2022-08-05T19:54:32.677Z,4.53
2022-08-05T19:57:02.363Z,8.30
2022-08-05T19:59:56.583Z,5.93
2022-08-05T20:02:23.572Z,4.80
2022-08-05T20:04:55.266Z,9.65
2022-08-05T20:07:46.346Z,5.35
2022-08-05T20:10:11.755Z,9.77
2022-08-05T20:12:48.312Z,6.05
2022-08-05T20:15:23.211Z,7.28
2022-08-05T20:18:10.570Z,6.13
2022-08-05T20:20:55.201Z,4.65
2022-08-05T20:23:23.756Z,6.15
2022-08-05T20:26:08.077Z,6.13
2022-08-05T20:28:43.179Z,6.30
2022-08-05T20:31:09.858Z,6.82
2022-08-05T20:33:38.775Z,5.68
2022-08-05T20:36:10.145Z,7.53
2022-08-05T20:38:40.924Z,5.25
2022-08-05T20:41:27.346Z,6.85
2022-08-05T20:44:18.548Z,6.97
2022-08-05T20:46:57.731Z,4.80
2022-08-05T20:49:26.954Z,3.65
2022-08-05T20:51:55.154Z,2.95
2022-08-05T20:54:43.673Z,6.00
2022-08-05T20:57:14.297Z,6.28
2022-08-05T21:00:10.549Z,5.97
2022-08-05T21:02:28.180Z,7.60
2022-08-05T21:04:55.437Z,6.07
2022-08-05T21:07:24.091Z,4.20
2022-08-05T21:09:53.745Z,4.90
2022-08-05T21:12:26.029Z,5.43
2022-08-05T21:14:53.721Z,7.35
2022-08-05T21:17:21.894Z,9.27
2022-08-05T21:19:52.069Z,7.15
2022-08-05T21:22:21.845Z,9.00
2022-08-05T21:24:54.367Z,7.30
2022-08-05T21:27:25.431Z,5.38
2022-08-05T21:29:56.045Z,7.50
2022-08-05T21:32:26.748Z,4.38
2022-08-05T21:35:16.756Z,6.65
2022-08-05T21:37:47.334Z,5.25
2022-08-05T21:40:19.522Z,8.13
2022-08-05T21:42:47.275Z,8.60
2022-08-05T21:45:24.062Z,5.03
2022-08-05T21:47:56.628Z,6.95
2022-08-05T21:50:26.121Z,5.43
2022-08-05T21:52:53.592Z,8.13
2022-08-05T21:56:01.315Z,7.32
2022-08-05T21:58:12.016Z,7.93
2022-08-05T22:03:07.092Z,4.55
2022-08-05T22:05:48.361Z,5.75
2022-08-05T22:10:51.635Z,9.70
2022-08-05T22:14:19.849Z,7.03
2022-08-05T22:16:32.139Z,9.15
2022-08-05T22:18:53.915Z,4.63
2022-08-05T22:21:25.249Z,5.10
2022-08-05T22:24:13.360Z,4.70
2022-08-05T22:27:17.286Z,8.07
2022-08-05T22:29:44.233Z,8.38
2022-08-05T22:32:12.679Z,6.65
2022-08-05T22:34:44.391Z,5.97
2022-08-05T22:37:12.667Z,10.20
2022-08-05T22:39:39.502Z,5.90
2022-08-05T22:42:12.543Z,5.22
2022-08-05T22:44:53.585Z,6.00
2022-08-05T22:47:29.841Z,3.72
2022-08-05T22:50:19.961Z,5.07
2022-08-05T22:52:52.451Z,7.55
2022-08-05T22:55:21.143Z,4.80
2022-08-05T22:57:49.875Z,7.68
2022-08-05T23:00:18.250Z,6.93
2022-08-05T23:02:48.076Z,6.55
2022-08-05T23:05:16.247Z,8.13
2022-08-05T23:07:45.432Z,8.23
2022-08-05T23:10:20.137Z,4.75
2022-08-05T23:12:51.486Z,3.95
2022-08-05T23:15:22.664Z,5.85
2022-08-05T23:18:00.923Z,9.05
2022-08-05T23:20:29.926Z,10.93
2022-08-05T23:22:58.722Z,4.60
2022-08-05T23:25:51.407Z,4.30
2022-08-05T23:28:13.101Z,4.75
2022-08-05T23:30:43.420Z,5.38
2022-08-05T23:33:16.279Z,5.00
2022-08-05T23:35:52.639Z,6.72
2022-08-05T23:38:23.367Z,5.07
2022-08-05T23:40:52.431Z,8.73
2022-08-05T23:43:24.472Z,6.88
2022-08-05T23:46:03.722Z,6.40
2022-08-05T23:48:30.420Z,3.33
2022-08-05T23:50:57.136Z,6.55
2022-08-05T23:53:28.590Z,9.20
2022-08-05T23:56:12.176Z,7.97
